Time;durP1;ratioP1;P1;durP2;ratioP2;P2;SDS_P1;SDS_P2;PMS_P1;PMS_P2;Temp;Humidity;BMP_temperature;BMP_pressure;BME280_temperature;BME280_humidity;BME280_pressure;Samples;Min_cycle;Max_cycle;Signal;HPM_P1;HPM_P2
2020/12/25 00:04:00;;;;;;;4.22;1.10;;;16.40;70.00;;;;;;10500147;28;20668;-57
2020/12/25 00:09:03;;;;;;;1.88;0.93;;;16.40;70.00;;;;;;10500048;28;20036;-57
2020/12/25 00:14:05;;;;;;;2.47;0.80;;;16.40;70.00;;;;;;10500346;28;20021;-57
2020/12/25 00:19:05;;;;;;;3.92;1.13;;;16.40;70.10;;;;;;10500228;28;20029;-56
2020/12/25 00:24:08;;;;;;;1.75;0.85;;;16.40;70.10;;;;;;10500822;28;20750;-56
2020/12/25 00:29:08;;;;;;;1.52;0.70;;;16.30;70.00;;;;;;10500209;28;20056;-57
2020/12/25 00:34:10;;;;;;;2.05;1.08;;;16.30;70.10;;;;;;10500189;28;20111;-57
2020/12/25 00:39:17;;;;;;;2.08;1.00;;;16.30;70.10;;;;;;10500093;28;20036;-57
2020/12/25 00:44:18;;;;;;;3.33;1.42;;;16.30;70.10;;;;;;10499574;28;20111;-57
2020/12/25 00:49:19;;;;;;;2.90;1.10;;;16.20;70.10;;;;;;10499365;28;20037;-56
2020/12/25 00:54:20;;;;;;;3.35;1.00;;;16.20;70.10;;;;;;10499044;28;20542;-56
2020/12/25 00:59:20;;;;;;;3.17;1.00;;;16.20;70.10;;;;;;10498915;28;20360;-55
2020/12/25 01:04:21;;;;;;;2.30;0.85;;;16.20;70.00;;;;;;10490544;28;20103;-57
2020/12/25 01:09:24;;;;;;;1.52;0.73;;;16.20;70.10;;;;;;10497450;28;20427;-57
2020/12/25 01:14:29;;;;;;;1.73;0.80;;;16.10;70.00;;;;;;10498620;28;20534;-57
2020/12/25 01:19:30;;;;;;;2.20;0.77;;;16.10;70.00;;;;;;10498082;28;20029;-57
2020/12/25 01:24:31;;;;;;;1.60;1.00;;;16.10;70.00;;;;;;10497935;28;20021;-57
2020/12/25 01:29:31;;;;;;;2.65;1.08;;;16.10;70.00;;;;;;10497598;28;20024;-57
2020/12/25 01:34:32;;;;;;;1.63;0.80;;;16.10;70.10;;;;;;10497742;28;20032;-57
2020/12/25 01:39:33;;;;;;;2.15;0.95;;;16.10;70.10;;;;;;10497434;28;20093;-57
2020/12/25 01:44:34;;;;;;;1.65;0.70;;;16.10;70.00;;;;;;10497451;28;20619;-57
2020/12/25 01:49:35;;;;;;;3.72;0.90;;;16.10;70.10;;;;;;10497135;28;20166;-56
2020/12/25 01:54:36;;;;;;;3.15;1.08;;;16.10;70.10;;;;;;10496084;28;20032;-56
2020/12/25 01:59:36;;;;;;;1.58;0.80;;;16.00;70.00;;;;;;10496936;28;20040;-57
2020/12/25 02:04:37;;;;;;;1.70;0.43;;;16.00;70.10;;;;;;10488159;28;20054;-55
2020/12/25 02:09:38;;;;;;;2.53;1.10;;;16.00;70.10;;;;;;10496840;28;20169;-57
2020/12/25 02:14:40;;;;;;;1.55;0.80;;;16.00;70.10;;;;;;10496640;28;20067;-57
2020/12/25 02:19:40;;;;;;;1.60;0.63;;;16.00;70.10;;;;;;10501030;28;20078;-57
2020/12/25 02:24:41;;;;;;;1.35;0.65;;;15.90;70.10;;;;;;10510466;28;20107;-57
2020/12/25 02:29:42;;;;;;;2.22;0.77;;;15.90;70.10;;;;;;10510101;28;20116;-57
2020/12/25 02:34:44;;;;;;;1.48;0.57;;;15.90;70.10;;;;;;10510370;28;20119;-56
2020/12/25 02:39:44;;;;;;;2.17;0.80;;;15.90;70.10;;;;;;10509963;28;20381;-57
2020/12/25 02:44:45;;;;;;;1.25;0.60;;;15.90;70.10;;;;;;10510077;28;20028;-57
2020/12/25 02:49:46;;;;;;;3.25;0.70;;;15.80;70.10;;;;;;10508557;28;20042;-56
2020/12/25 02:54:46;;;;;;;1.50;0.60;;;15.80;70.00;;;;;;10509822;28;20108;-57
2020/12/25 02:59:47;;;;;;;1.58;0.80;;;15.80;70.00;;;;;;10509324;28;20100;-57
2020/12/25 03:04:48;;;;;;;1.58;0.55;;;15.80;70.00;;;;;;10509619;28;20025;-57
2020/12/25 03:09:48;;;;;;;1.45;0.55;;;15.80;70.20;;;;;;10509408;28;20079;-56
2020/12/25 03:14:50;;;;;;;3.72;0.80;;;15.80;70.10;;;;;;10503652;28;20487;-57
2020/12/25 03:19:50;;;;;;;1.98;0.70;;;15.80;70.10;;;;;;10509470;28;20025;-57
2020/12/25 03:24:51;;;;;;;2.70;1.05;;;15.80;70.10;;;;;;10506411;28;20116;-56
2020/12/25 03:29:52;;;;;;;1.33;0.63;;;15.70;70.10;;;;;;10508086;28;20206;-57
2020/12/25 03:34:53;;;;;;;2.78;1.15;;;15.70;70.10;;;;;;10501945;28;20094;-57
2020/12/25 03:39:53;;;;;;;1.40;0.70;;;15.70;70.10;;;;;;10501105;28;20133;-55
2020/12/25 03:44:54;;;;;;;2.38;0.70;;;15.70;70.20;;;;;;10501693;28;20091;-56
2020/12/25 03:49:55;;;;;;;1.27;0.50;;;15.70;70.10;;;;;;10501611;28;20035;-56
2020/12/25 03:54:56;;;;;;;1.98;0.50;;;15.60;70.10;;;;;;10501463;28;20397;-56
2020/12/25 03:59:56;;;;;;;0.88;0.50;;;15.60;70.10;;;;;;10501575;28;20028;-57
2020/12/25 04:04:57;;;;;;;1.60;0.50;;;15.60;70.10;;;;;;10500169;28;20107;-56
2020/12/25 04:09:58;;;;;;;1.23;0.60;;;15.60;70.20;;;;;;10500702;28;20079;-56
2020/12/25 04:14:59;;;;;;;2.42;0.50;;;15.60;70.10;;;;;;10501019;28;20516;-57
2020/12/25 04:19:59;;;;;;;0.60;0.40;;;15.60;70.10;;;;;;10496333;28;20067;-56
2020/12/25 04:25:00;;;;;;;1.70;0.73;;;15.60;70.10;;;;;;10500492;28;20110;-57
2020/12/25 04:30:01;;;;;;;1.15;0.60;;;15.50;70.10;;;;;;10500230;28;20475;-56
2020/12/25 04:35:02;;;;;;;0.88;0.60;;;15.50;70.10;;;;;;10500294;28;20036;-57
2020/12/25 04:40:04;;;;;;;1.75;0.52;;;15.50;70.10;;;;;;10500050;28;20404;-57
2020/12/25 04:45:05;;;;;;;0.90;0.45;;;15.50;70.10;;;;;;10499485;28;20369;-56
2020/12/25 04:50:05;;;;;;;1.75;0.55;;;15.50;70.10;;;;;;10499669;28;20043;-58
2020/12/25 04:55:06;;;;;;;2.50;0.57;;;15.40;70.10;;;;;;10499371;28;20170;-56
2020/12/25 05:00:19;;;;;;;0.98;0.47;;;15.40;70.10;;;;;;10498872;28;20032;-57
2020/12/25 05:05:30;;;;;;;2.30;0.80;;;15.40;70.10;;;;;;10498951;28;20040;-57
2020/12/25 05:10:31;;;;;;;0.93;0.50;;;15.40;70.10;;;;;;10498081;28;20076;-57
2020/12/25 05:15:32;;;;;;;2.60;1.10;;;15.40;70.20;;;;;;10498515;28;20380;-57
2020/12/25 05:20:34;;;;;;;1.30;0.63;;;15.40;70.10;;;;;;10497347;28;20107;-57
2020/12/25 05:25:35;;;;;;;1.73;0.50;;;15.30;70.10;;;;;;10476828;28;20108;-57
2020/12/25 05:30:36;;;;;;;1.58;0.60;;;15.30;70.20;;;;;;10463041;28;20032;-57
2020/12/25 05:35:37;;;;;;;0.60;0.40;;;15.40;70.20;;;;;;10497340;28;20044;-57
2020/12/25 05:40:42;;;;;;;1.38;0.40;;;15.30;70.10;;;;;;10497608;28;20024;-56
2020/12/25 05:45:44;;;;;;;1.30;0.70;;;15.30;70.10;;;;;;10497149;28;20024;-56
2020/12/25 05:50:45;;;;;;;1.13;0.40;;;15.30;70.20;;;;;;10479024;28;20021;-57
2020/12/25 05:55:46;;;;;;;0.65;0.40;;;15.30;70.10;;;;;;10460605;28;20083;-57
2020/12/25 06:00:47;;;;;;;0.60;0.47;;;15.30;70.20;;;;;;10475369;28;20123;-57
2020/12/25 06:05:51;;;;;;;0.93;0.40;;;15.20;70.00;;;;;;10460660;28;20583;-57
2020/12/25 06:11:00;;;;;;;1.75;0.47;;;15.20;70.10;;;;;;10462131;28;20041;-56
2020/12/25 06:16:03;;;;;;;1.67;0.40;;;15.20;70.10;;;;;;10478213;28;20023;-57
2020/12/25 06:21:12;;;;;;;1.40;0.55;;;15.20;70.10;;;;;;10491889;28;20481;-57
2020/12/25 06:26:19;;;;;;;0.77;0.40;;;15.20;70.20;;;;;;10494392;28;20033;-57
2020/12/25 06:31:42;;;;;;;0.77;0.47;;;15.20;70.20;;;;;;10469107;28;20036;-57
2020/12/25 06:36:52;;;;;;;1.88;0.30;;;15.20;70.20;;;;;;10484138;28;20111;-57
2020/12/25 06:41:57;;;;;;;2.35;0.47;;;15.20;70.20;;;;;;10485200;28;20036;-57
2020/12/25 06:47:03;;;;;;;0.65;0.60;;;15.10;70.20;;;;;;10464102;28;20032;-57
2020/12/25 06:52:03;;;;;;;3.67;0.90;;;15.10;70.20;;;;;;10487845;28;20029;-57
2020/12/25 06:57:05;;;;;;;2.35;0.52;;;15.10;70.20;;;;;;10470015;28;20032;-57
2020/12/25 07:02:05;;;;;;;1.27;0.38;;;15.10;70.20;;;;;;10456792;28;20021;-56
2020/12/25 07:07:11;;;;;;;1.92;0.30;;;15.10;70.20;;;;;;10481462;28;20051;-56
2020/12/25 07:12:23;;;;;;;1.75;0.57;;;15.10;70.30;;;;;;10499384;28;20045;-57
2020/12/25 07:17:25;;;;;;;3.10;0.47;;;15.20;70.40;;;;;;10502715;28;20032;-57
2020/12/25 07:22:27;;;;;;;1.20;0.50;;;15.40;70.00;;;;;;10502600;28;20066;-57
2020/12/25 07:27:28;;;;;;;5.57;1.60;;;15.70;69.00;;;;;;10500677;28;20119;-57
2020/12/25 07:32:30;;;;;;;5.40;0.82;;;16.40;67.80;;;;;;10502352;28;20029;-58
2020/12/25 07:37:31;;;;;;;3.65;0.60;;;16.80;66.50;;;;;;10499530;28;20016;-57
2020/12/25 07:42:31;;;;;;;1.20;0.40;;;17.00;66.80;;;;;;10500263;28;20028;-58
2020/12/25 07:47:32;;;;;;;4.10;1.25;;;16.90;67.10;;;;;;10501864;28;20111;-58
2020/12/25 07:52:33;;;;;;;8.18;0.68;;;16.90;67.20;;;;;;10501625;28;20082;-59
2020/12/25 07:57:38;;;;;;;2.50;0.60;;;16.80;67.50;;;;;;10492148;28;20098;-49
2020/12/25 08:02:42;;;;;;;4.18;0.52;;;16.70;67.90;;;;;;10501596;28;20031;-51
2020/12/25 08:07:43;;;;;;;4.95;0.98;;;16.60;68.00;;;;;;10501234;28;20024;-52
2020/12/25 08:12:50;;;;;;;4.40;0.80;;;16.50;68.30;;;;;;10480285;28;20037;-57
2020/12/25 08:17:56;;;;;;;6.00;0.60;;;16.60;68.10;;;;;;10485805;28;20401;-57
2020/12/25 08:23:02;;;;;;;3.92;0.88;;;16.60;68.00;;;;;;10467497;28;20025;-57
2020/12/25 08:28:03;;;;;;;3.50;0.93;;;16.50;68.20;;;;;;10484540;28;20036;-57
2020/12/25 08:33:03;;;;;;;6.20;1.33;;;16.50;68.80;;;;;;10498789;28;20540;-56
2020/12/25 08:38:04;;;;;;;5.32;1.20;;;16.60;68.20;;;;;;10468441;28;20116;-57
2020/12/25 08:43:17;;;;;;;3.83;1.00;;;16.60;68.10;;;;;;10469734;28;20358;-57
2020/12/25 08:48:18;;;;;;;6.15;0.82;;;16.60;67.50;;;;;;10492063;28;20036;-57
2020/12/25 08:53:22;;;;;;;5.90;0.80;;;16.60;67.30;;;;;;10497978;28;20025;-56
2020/12/25 08:58:23;;;;;;;1.80;0.85;;;16.50;67.60;;;;;;10495490;28;20021;-57
2020/12/25 09:03:35;;;;;;;4.55;1.10;;;16.50;68.00;;;;;;10495210;28;20009;-56
2020/12/25 09:08:37;;;;;;;4.00;0.68;;;16.40;68.30;;;;;;10496487;28;20036;-57
2020/12/25 09:13:39;;;;;;;3.45;0.85;;;16.30;68.70;;;;;;10496535;28;20102;-57
2020/12/25 09:18:41;;;;;;;3.13;0.65;;;16.10;68.90;;;;;;10496843;28;20366;-56
2020/12/25 09:23:42;;;;;;;4.65;1.35;;;16.00;69.30;;;;;;10497132;28;20031;-57
2020/12/25 09:28:43;;;;;;;3.55;0.60;;;16.00;69.40;;;;;;10496629;28;20358;-56
2020/12/25 09:33:44;;;;;;;4.80;1.13;;;15.90;69.50;;;;;;10497741;28;20106;-58
2020/12/25 09:38:44;;;;;;;3.40;0.50;;;15.90;69.60;;;;;;10502885;28;20035;-57
2020/12/25 09:43:45;;;;;;;2.25;0.60;;;15.80;69.80;;;;;;10491094;28;20111;-56
2020/12/25 09:48:46;;;;;;;3.17;0.50;;;15.80;70.30;;;;;;10497142;28;20071;-57
2020/12/25 09:53:46;;;;;;;3.53;1.10;;;15.80;70.50;;;;;;10496866;28;20041;-56
2020/12/25 09:58:47;;;;;;;5.55;0.70;;;15.80;70.90;;;;;;10497164;28;20119;-57
2020/12/25 10:03:47;;;;;;;4.40;0.85;;;15.70;71.00;;;;;;10496540;28;20129;-53
2020/12/25 10:08:48;;;;;;;5.63;0.98;;;15.70;71.00;;;;;;10496367;28;20465;-57
2020/12/25 10:13:49;;;;;;;2.33;0.60;;;15.70;71.00;;;;;;10496558;28;20100;-56
2020/12/25 10:18:49;;;;;;;2.10;0.52;;;15.60;71.10;;;;;;10496171;28;20484;-56
2020/12/25 10:23:50;;;;;;;3.17;0.40;;;15.60;70.90;;;;;;10496319;28;20048;-57
2020/12/25 10:28:51;;;;;;;4.28;0.82;;;15.60;70.80;;;;;;10496131;28;20103;-57
2020/12/25 10:33:52;;;;;;;2.65;0.70;;;15.50;70.70;;;;;;10496096;28;20548;-57
2020/12/25 10:38:52;;;;;;;5.00;0.60;;;15.50;70.70;;;;;;10495890;28;20078;-55
2020/12/25 10:43:53;;;;;;;1.58;0.50;;;15.50;70.80;;;;;;10503871;28;20027;-56
2020/12/25 10:48:54;;;;;;;2.38;0.40;;;15.40;70.70;;;;;;10504187;28;20025;-56
2020/12/25 10:53:54;;;;;;;1.60;0.47;;;15.40;70.80;;;;;;10504173;28;20039;-56
2020/12/25 10:58:55;;;;;;;1.50;0.55;;;15.40;71.80;;;;;;10500460;28;20430;-56
2020/12/25 11:03:57;;;;;;;1.25;1.00;;;15.40;71.90;;;;;;10503147;28;20027;-57
2020/12/25 11:09:00;;;;;;;3.20;0.70;;;15.40;71.70;;;;;;10502761;28;20048;-57
2020/12/25 11:14:03;;;;;;;1.83;1.05;;;15.40;71.70;;;;;;10502806;28;20059;-57
2020/12/25 11:19:07;;;;;;;1.88;0.57;;;15.50;71.50;;;;;;10502814;28;20017;-57
2020/12/25 11:24:08;;;;;;;5.63;1.23;;;15.60;71.20;;;;;;10484607;28;20472;-57
2020/12/25 11:29:09;;;;;;;1.45;0.60;;;15.70;71.10;;;;;;10502393;28;20021;-55
2020/12/25 11:34:10;;;;;;;1.15;0.50;;;15.70;70.90;;;;;;10502157;28;20412;-57
2020/12/25 11:39:10;;;;;;;2.55;0.45;;;15.70;71.00;;;;;;10502374;28;20032;-57
2020/12/25 11:44:11;;;;;;;1.35;0.40;;;15.70;70.70;;;;;;10500865;28;20060;-57
2020/12/25 11:49:12;;;;;;;2.28;0.77;;;15.70;70.80;;;;;;10501993;28;20241;-57
2020/12/25 11:54:12;;;;;;;2.25;0.50;;;15.60;70.80;;;;;;10500569;28;20100;-56
2020/12/25 11:59:13;;;;;;;4.82;0.93;;;15.60;70.90;;;;;;10501486;28;20115;-57
2020/12/25 12:04:14;;;;;;;2.03;0.70;;;15.50;70.90;;;;;;10501315;28;20025;-57
2020/12/25 12:09:15;;;;;;;5.75;0.85;;;15.50;71.20;;;;;;10500828;28;20040;-57
2020/12/25 12:14:15;;;;;;;2.75;1.10;;;15.50;71.00;;;;;;10500535;28;20055;-57
2020/12/25 12:19:16;;;;;;;1.23;0.60;;;15.60;70.80;;;;;;10500619;28;20060;-57
2020/12/25 12:24:17;;;;;;;2.45;0.50;;;15.50;71.00;;;;;;10500571;28;20044;-57
2020/12/25 12:29:17;;;;;;;1.58;0.57;;;15.50;71.30;;;;;;10491335;28;20476;-57
2020/12/25 12:34:18;;;;;;;1.05;0.60;;;15.40;71.40;;;;;;10499933;28;20024;-56
2020/12/25 12:39:19;;;;;;;3.60;0.77;;;15.30;71.50;;;;;;10499534;28;20477;-56
2020/12/25 12:44:20;;;;;;;1.20;0.55;;;15.30;71.60;;;;;;10497246;28;20107;-57
2020/12/25 12:49:22;;;;;;;2.55;0.50;;;15.20;71.70;;;;;;10499427;28;20028;-57
2020/12/25 12:54:22;;;;;;;0.75;0.35;;;15.20;71.70;;;;;;10497702;28;20057;-57
2020/12/25 12:59:23;;;;;;;1.35;0.50;;;15.20;71.70;;;;;;10498645;28;20595;-57
2020/12/25 13:04:25;;;;;;;1.23;0.65;;;15.20;71.70;;;;;;10498155;28;20095;-56
2020/12/25 13:09:25;;;;;;;3.17;0.70;;;15.20;71.60;;;;;;10498317;28;20056;-57
2020/12/25 13:14:27;;;;;;;1.25;0.60;;;15.20;71.50;;;;;;10497859;28;20033;-55
2020/12/25 13:19:27;;;;;;;1.42;0.52;;;15.10;72.00;;;;;;10497811;28;20027;-56
2020/12/25 13:24:28;;;;;;;1.83;0.55;;;15.10;71.40;;;;;;10497810;28;20095;-57
2020/12/25 13:29:29;;;;;;;0.80;0.40;;;15.10;71.40;;;;;;10497879;28;20052;-56
2020/12/25 13:34:29;;;;;;;1.48;0.60;;;15.00;71.30;;;;;;10497544;28;20021;-57
2020/12/25 13:39:30;;;;;;;1.25;0.60;;;15.00;71.20;;;;;;10497483;28;20028;-56
2020/12/25 13:44:31;;;;;;;1.10;0.40;;;15.00;71.30;;;;;;10497114;28;20050;-56
2020/12/25 13:49:32;;;;;;;2.83;0.65;;;15.00;71.20;;;;;;10497197;28;20067;-57
2020/12/25 13:54:32;;;;;;;1.25;0.85;;;15.00;71.20;;;;;;10497140;28;20103;-56
2020/12/25 13:59:33;;;;;;;2.03;0.90;;;15.00;71.20;;;;;;10496708;28;20071;-58
2020/12/25 14:04:34;;;;;;;1.35;0.75;;;15.00;71.10;;;;;;10496882;28;20118;-57
2020/12/25 14:09:37;;;;;;;3.97;0.95;;;15.00;71.10;;;;;;10496146;28;20055;-57
2020/12/25 14:14:38;;;;;;;1.77;0.40;;;14.90;71.10;;;;;;10494747;28;20054;-57
2020/12/25 14:19:39;;;;;;;1.38;0.60;;;14.90;71.10;;;;;;10511879;28;20456;-57
2020/12/25 14:24:39;;;;;;;3.25;0.60;;;14.90;71.10;;;;;;10493178;28;20115;-57
2020/12/25 14:29:40;;;;;;;3.13;0.70;;;14.90;71.10;;;;;;10496146;28;20036;-57
2020/12/25 14:34:41;;;;;;;1.77;0.77;;;14.90;71.20;;;;;;10495840;28;20119;-57
2020/12/25 14:39:41;;;;;;;1.58;0.70;;;14.90;71.20;;;;;;10496019;28;20145;-57
2020/12/25 14:44:42;;;;;;;2.20;0.70;;;14.90;71.20;;;;;;10496146;28;20041;-57
2020/12/25 14:49:43;;;;;;;2.45;0.60;;;14.80;71.10;;;;;;10495531;28;20040;-57
2020/12/25 14:54:43;;;;;;;1.95;0.60;;;14.80;71.10;;;;;;10495799;28;20108;-57
2020/12/25 14:59:44;;;;;;;1.83;0.55;;;14.80;71.20;;;;;;10495453;28;20029;-57
2020/12/25 15:04:45;;;;;;;3.67;0.75;;;14.80;71.20;;;;;;10495666;28;20435;-57
2020/12/25 15:09:45;;;;;;;1.42;0.40;;;14.80;71.20;;;;;;10495231;28;20460;-56
2020/12/25 15:14:46;;;;;;;0.80;0.52;;;14.80;71.20;;;;;;10495729;28;20036;-56
2020/12/25 15:19:47;;;;;;;2.17;0.73;;;14.80;71.20;;;;;;10495090;28;20104;-56
2020/12/25 15:24:48;;;;;;;1.08;0.50;;;14.80;71.20;;;;;;10495097;28;20024;-57
2020/12/25 15:29:48;;;;;;;2.90;0.93;;;14.80;71.20;;;;;;10500298;28;20036;-57
2020/12/25 15:34:49;;;;;;;1.50;0.50;;;14.80;71.20;;;;;;10502453;28;20056;-56
2020/12/25 15:39:51;;;;;;;2.13;0.85;;;14.70;71.20;;;;;;10502120;28;20082;-57
2020/12/25 15:44:51;;;;;;;1.52;0.60;;;14.70;71.20;;;;;;10502059;28;20016;-57
2020/12/25 15:49:52;;;;;;;2.17;1.13;;;14.70;71.20;;;;;;10501910;28;20116;-57
2020/12/25 15:54:53;;;;;;;1.48;0.52;;;14.70;71.10;;;;;;10501521;28;20101;-57
2020/12/25 15:59:53;;;;;;;2.63;0.80;;;14.70;71.20;;;;;;10501323;28;20118;-57
2020/12/25 16:04:54;;;;;;;1.17;0.60;;;14.70;71.20;;;;;;10501116;28;20497;-57
2020/12/25 16:09:55;;;;;;;1.58;0.82;;;14.70;71.20;;;;;;10501216;28;20076;-56
2020/12/25 16:14:55;;;;;;;2.55;1.30;;;14.60;71.20;;;;;;10500637;28;20126;-57
2020/12/25 16:19:56;;;;;;;2.70;0.63;;;14.60;71.10;;;;;;10499408;28;20619;-57
2020/12/25 16:24:57;;;;;;;2.17;0.90;;;14.70;71.10;;;;;;10499325;28;20103;-56
2020/12/25 16:29:58;;;;;;;3.05;0.95;;;14.60;71.10;;;;;;10498782;28;20047;-57
2020/12/25 16:34:59;;;;;;;2.15;0.70;;;14.60;71.10;;;;;;10488108;28;20064;-55
2020/12/25 16:40:00;;;;;;;1.67;1.02;;;14.60;71.10;;;;;;10498508;28;20029;-57
2020/12/25 16:45:03;;;;;;;2.17;0.90;;;14.60;71.10;;;;;;10498953;28;20503;-57
2020/12/25 16:50:05;;;;;;;2.85;1.08;;;14.60;71.10;;;;;;10498607;28;20067;-58
2020/12/25 16:55:06;;;;;;;2.13;0.93;;;14.60;71.70;;;;;;10498622;28;20045;-57
2020/12/25 17:00:07;;;;;;;2.22;1.30;;;14.50;71.60;;;;;;10498601;28;20021;-57
2020/12/25 17:05:08;;;;;;;3.40;1.00;;;14.50;71.00;;;;;;10498110;28;20108;-56
2020/12/25 17:10:09;;;;;;;5.40;1.33;;;14.50;70.90;;;;;;10497414;28;20039;-57
2020/12/25 17:15:10;;;;;;;2.00;0.82;;;14.50;70.90;;;;;;10497739;28;20416;-57
2020/12/25 17:20:10;;;;;;;1.10;0.68;;;14.50;70.90;;;;;;10497866;28;20024;-56
2020/12/25 17:25:11;;;;;;;3.90;0.95;;;14.50;70.90;;;;;;10497407;28;20413;-57
2020/12/25 17:30:11;;;;;;;1.15;0.70;;;14.50;71.00;;;;;;10496973;28;20108;-56
2020/12/25 17:35:12;;;;;;;2.05;0.93;;;14.50;71.00;;;;;;10496765;28;20115;-55
2020/12/25 17:40:14;;;;;;;1.20;0.82;;;14.50;71.00;;;;;;10496745;28;20155;-57
2020/12/25 17:45:15;;;;;;;1.80;0.98;;;14.50;71.00;;;;;;10495494;28;20496;-57
2020/12/25 17:50:15;;;;;;;2.08;0.95;;;14.50;71.00;;;;;;10489472;28;20111;-57
2020/12/25 17:55:16;;;;;;;2.17;0.90;;;14.50;71.00;;;;;;10495600;28;20127;-57
2020/12/25 18:00:17;;;;;;;3.10;1.13;;;14.40;71.00;;;;;;10496172;28;20478;-54
2020/12/25 18:05:18;;;;;;;1.55;0.90;;;14.50;71.00;;;;;;10494790;28;20457;-56
2020/12/25 18:10:18;;;;;;;1.38;0.80;;;14.40;71.00;;;;;;10495640;28;20044;-56
2020/12/25 18:15:20;;;;;;;2.38;1.40;;;14.40;71.00;;;;;;10494433;28;20119;-56
2020/12/25 18:20:21;;;;;;;1.20;0.90;;;14.40;71.00;;;;;;10495745;28;20514;-55
2020/12/25 18:25:22;;;;;;;1.48;0.80;;;14.40;71.00;;;;;;10495715;28;20021;-56
2020/12/25 18:30:22;;;;;;;2.05;1.27;;;14.40;70.90;;;;;;10495486;28;20025;-56
2020/12/25 18:35:23;;;;;;;2.08;1.10;;;14.40;70.90;;;;;;10495577;28;20490;-56
2020/12/25 18:40:24;;;;;;;2.25;1.30;;;14.30;70.90;;;;;;10487370;28;20035;-56
2020/12/25 18:45:25;;;;;;;1.65;0.85;;;14.40;71.00;;;;;;10495567;28;20103;-57
2020/12/25 18:50:26;;;;;;;2.15;1.30;;;14.30;70.90;;;;;;10489459;28;20578;-56
2020/12/25 18:55:26;;;;;;;2.75;1.52;;;14.30;70.90;;;;;;10495023;28;20032;-56
2020/12/25 19:00:27;;;;;;;2.17;1.20;;;14.30;70.90;;;;;;10493985;28;20029;-57
2020/12/25 19:05:30;;;;;;;3.13;1.40;;;14.30;70.90;;;;;;10502878;28;20495;-57
2020/12/25 19:10:31;;;;;;;2.75;1.30;;;14.30;70.90;;;;;;10502695;28;20117;-57
2020/12/25 19:15:31;;;;;;;1.92;1.02;;;14.30;70.90;;;;;;10502451;28;20035;-56
2020/12/25 19:20:32;;;;;;;3.22;1.45;;;14.30;70.90;;;;;;10502022;28;20021;-57
2020/12/25 19:25:33;;;;;;;2.17;1.30;;;14.30;70.90;;;;;;10501867;28;20028;-56
2020/12/25 19:30:34;;;;;;;2.42;1.50;;;14.30;71.00;;;;;;10501241;28;20400;-57
2020/12/25 19:35:34;;;;;;;3.35;1.73;;;14.30;71.00;;;;;;10502268;28;20123;-57
2020/12/25 19:40:35;;;;;;;3.33;1.60;;;14.30;71.00;;;;;;10496634;28;20036;-57
2020/12/25 19:45:36;;;;;;;1.65;1.48;;;14.30;71.10;;;;;;10497636;28;20043;-57
2020/12/25 19:50:37;;;;;;;4.97;1.85;;;14.30;70.70;;;;;;10496652;28;20040;-57
2020/12/25 19:55:38;;;;;;;6.10;1.73;;;14.30;70.90;;;;;;10500337;28;20061;-58
2020/12/25 20:00:38;;;;;;;6.38;1.40;;;14.30;71.60;;;;;;10497518;28;20115;-58
2020/12/25 20:05:39;;;;;;;6.60;1.83;;;14.30;71.70;;;;;;10500698;28;20028;-58
2020/12/25 20:10:40;;;;;;;4.68;1.77;;;14.30;71.80;;;;;;10500948;28;20087;-58
2020/12/25 20:15:41;;;;;;;5.95;1.92;;;14.30;71.80;;;;;;10500453;28;20170;-57
2020/12/25 20:20:41;;;;;;;3.17;1.52;;;14.30;71.80;;;;;;10500932;28;20032;-58
2020/12/25 20:25:42;;;;;;;3.13;1.40;;;14.30;72.00;;;;;;10500876;28;20020;-58
2020/12/25 20:30:43;;;;;;;4.60;2.05;;;14.30;72.00;;;;;;10500823;28;20075;-58
2020/12/25 20:35:43;;;;;;;7.38;2.17;;;14.30;72.10;;;;;;10500343;28;20032;-58
2020/12/25 20:40:44;;;;;;;3.42;1.67;;;14.20;72.20;;;;;;10500188;28;20101;-58
2020/12/25 20:45:45;;;;;;;3.15;1.70;;;14.30;72.20;;;;;;10499846;28;20028;-58
2020/12/25 20:50:46;;;;;;;3.58;2.33;;;14.30;72.40;;;;;;10486150;28;20063;-57
2020/12/25 20:55:46;;;;;;;2.85;1.70;;;14.20;72.00;;;;;;10498448;28;20053;-58
2020/12/25 21:00:47;;;;;;;5.57;1.88;;;14.20;71.70;;;;;;10495890;28;20033;-59
2020/12/25 21:05:48;;;;;;;3.25;1.75;;;14.20;71.50;;;;;;10498432;28;20048;-58
2020/12/25 21:10:48;;;;;;;3.70;1.70;;;14.20;72.00;;;;;;10496721;28;20175;-58
2020/12/25 21:15:50;;;;;;;4.28;2.20;;;14.10;71.30;;;;;;10496163;28;20024;-58
2020/12/25 21:20:52;;;;;;;5.95;2.00;;;14.10;71.30;;;;;;10496366;28;20354;-57
2020/12/25 21:25:53;;;;;;;3.85;2.03;;;14.10;71.30;;;;;;10496909;28;20035;-58
2020/12/25 21:30:55;;;;;;;5.53;2.97;;;14.10;71.30;;;;;;10495965;28;20044;-58
2020/12/25 21:35:56;;;;;;;4.72;2.38;;;14.10;71.30;;;;;;10497746;28;20025;-58
2020/12/25 21:40:58;;;;;;;5.15;3.03;;;14.10;71.20;;;;;;10497858;28;20367;-58
2020/12/25 21:45:58;;;;;;;3.40;2.17;;;14.00;71.20;;;;;;10497900;28;20408;-58
2020/12/25 21:50:59;;;;;;;5.05;2.92;;;14.10;71.20;;;;;;10497303;28;20024;-58
2020/12/25 21:56:00;;;;;;;3.67;2.47;;;14.00;71.00;;;;;;10497443;28;20099;-58
2020/12/25 22:01:01;;;;;;;3.38;2.05;;;14.00;71.00;;;;;;10497340;28;20022;-58
2020/12/25 22:06:01;;;;;;;4.75;2.35;;;14.00;71.00;;;;;;10486509;28;20107;-58
2020/12/25 22:11:02;;;;;;;5.32;2.72;;;14.00;70.90;;;;;;10496403;28;20123;-58
2020/12/25 22:16:03;;;;;;;4.20;2.55;;;14.00;70.90;;;;;;10496927;28;20073;-58
2020/12/25 22:21:05;;;;;;;6.70;2.70;;;13.90;70.90;;;;;;10495336;28;20020;-58
2020/12/25 22:26:10;;;;;;;4.00;2.20;;;14.00;70.90;;;;;;10496500;28;20678;-58
2020/12/25 22:31:10;;;;;;;7.13;2.58;;;14.00;70.80;;;;;;10496495;28;20412;-58
2020/12/25 22:36:11;;;;;;;3.58;2.13;;;13.90;70.80;;;;;;10497776;28;20103;-58
2020/12/25 22:41:18;;;;;;;3.53;2.35;;;13.90;70.80;;;;;;10504937;28;20021;-58
2020/12/25 22:46:34;;;;;;;3.50;2.13;;;13.90;70.80;;;;;;10504503;28;20100;-57
2020/12/25 22:51:35;;;;;;;2.88;2.03;;;13.90;70.80;;;;;;10502604;28;20028;-59
2020/12/25 22:56:37;;;;;;;4.43;2.50;;;13.90;70.70;;;;;;10503260;28;20452;-58
2020/12/25 23:01:41;;;;;;;2.97;1.90;;;13.90;70.70;;;;;;10502558;28;20060;-58
2020/12/25 23:06:46;;;;;;;3.88;2.20;;;13.90;70.70;;;;;;10503105;28;20036;-58
2020/12/25 23:11:47;;;;;;;2.50;1.98;;;13.90;70.70;;;;;;10502287;28;20123;-58
2020/12/25 23:16:47;;;;;;;4.03;2.30;;;13.90;70.70;;;;;;10502952;28;20032;-57
2020/12/25 23:21:48;;;;;;;3.38;2.50;;;13.90;70.70;;;;;;10502472;28;20028;-58
2020/12/25 23:26:49;;;;;;;4.15;2.47;;;13.80;70.60;;;;;;10502207;28;20052;-58
2020/12/25 23:31:52;;;;;;;2.40;1.92;;;13.80;70.60;;;;;;10501989;28;20024;-58
2020/12/25 23:36:53;;;;;;;4.32;2.00;;;13.80;70.60;;;;;;10501532;28;20032;-58
2020/12/25 23:41:54;;;;;;;3.72;2.40;;;13.80;70.60;;;;;;10501738;28;20063;-58
2020/12/25 23:46:55;;;;;;;3.97;2.28;;;13.80;70.60;;;;;;10500558;28;20481;-58
2020/12/25 23:51:55;;;;;;;3.35;2.30;;;13.80;70.60;;;;;;10501154;28;20539;-58
2020/12/25 23:56:56;;;;;;;5.15;2.22;;;13.80;70.60;;;;;;10499760;28;20065;-58
